createdAt,value
2023-03-17T00:00:15.213Z,2.30
2023-03-17T00:02:45.953Z,2.17
2023-03-17T00:05:16.527Z,2.05
2023-03-17T00:07:46.279Z,2.08
2023-03-17T00:10:17.551Z,2.30
2023-03-17T00:12:45.869Z,2.33
2023-03-17T00:15:14.951Z,1.80
2023-03-17T00:17:43.745Z,2.10
2023-03-17T00:20:18.998Z,2.20
2023-03-17T00:22:46.367Z,2.00
2023-03-17T00:25:21.144Z,2.00
2023-03-17T00:27:49.705Z,2.17
2023-03-17T00:30:17.556Z,2.25
2023-03-17T00:32:45.515Z,1.80
2023-03-17T00:35:16.217Z,1.80
2023-03-17T00:37:44.136Z,2.20
2023-03-17T00:40:17.446Z,2.05
2023-03-17T00:42:45.766Z,2.10
2023-03-17T00:45:15.845Z,1.98
2023-03-17T00:47:45.564Z,1.90
2023-03-17T00:50:16.963Z,2.20
2023-03-17T00:52:45.644Z,1.98
2023-03-17T00:55:14.511Z,1.98
2023-03-17T00:57:43.063Z,1.70
2023-03-17T01:00:32.891Z,2.25
2023-03-17T01:03:00.362Z,1.80
2023-03-17T01:05:28.590Z,2.03
2023-03-17T01:07:57.914Z,2.30
2023-03-17T01:10:28.182Z,2.25
2023-03-17T01:12:58.968Z,1.92
2023-03-17T01:15:31.613Z,2.17
2023-03-17T01:18:01.961Z,1.80
2023-03-17T01:20:32.954Z,2.10
2023-03-17T01:23:02.453Z,2.25
2023-03-17T01:25:30.131Z,2.00
2023-03-17T01:27:59.381Z,2.00
2023-03-17T01:30:31.141Z,2.25
2023-03-17T01:32:59.278Z,2.28
2023-03-17T01:35:29.488Z,2.05
2023-03-17T01:37:58.415Z,2.47
2023-03-17T01:40:29.630Z,2.30
2023-03-17T01:43:02.557Z,2.40
2023-03-17T01:45:32.958Z,2.00
2023-03-17T01:48:00.193Z,2.22
2023-03-17T01:50:27.595Z,2.10
2023-03-17T01:52:54.979Z,2.25
2023-03-17T01:55:22.133Z,2.03
2023-03-17T01:57:54.593Z,2.10
2023-03-17T02:00:24.218Z,2.30
2023-03-17T02:02:56.374Z,1.73
2023-03-17T02:05:27.238Z,1.92
2023-03-17T02:07:56.146Z,2.17
2023-03-17T02:10:30.564Z,2.05
2023-03-17T02:13:04.046Z,2.15
2023-03-17T02:15:35.739Z,2.00
2023-03-17T02:18:03.935Z,2.13
2023-03-17T02:20:52.046Z,2.10
2023-03-17T02:23:23.676Z,2.30
2023-03-17T02:25:53.043Z,2.40
2023-03-17T02:28:26.143Z,2.15
2023-03-17T02:30:53.821Z,2.20
2023-03-17T02:33:21.133Z,2.20
2023-03-17T02:35:48.629Z,2.30
2023-03-17T02:38:17.747Z,2.38
2023-03-17T02:40:45.342Z,2.38
2023-03-17T02:43:12.591Z,2.70
2023-03-17T02:45:40.023Z,2.28
2023-03-17T02:48:07.482Z,2.10
2023-03-17T02:50:35.036Z,2.30
2023-03-17T02:53:02.439Z,2.03
2023-03-17T02:55:29.781Z,2.50
2023-03-17T02:57:57.043Z,2.90
2023-03-17T03:00:24.532Z,2.50
2023-03-17T03:02:52.054Z,2.67
2023-03-17T03:05:20.028Z,2.63
2023-03-17T03:07:47.682Z,2.70
2023-03-17T03:10:16.042Z,1.92
2023-03-17T03:12:43.333Z,2.10
2023-03-17T03:15:11.485Z,2.75
2023-03-17T03:17:38.905Z,2.22
2023-03-17T03:20:07.476Z,2.80
2023-03-17T03:22:34.906Z,2.30
2023-03-17T03:25:02.435Z,2.20
2023-03-17T03:27:29.792Z,2.42
2023-03-17T03:29:57.312Z,2.67
2023-03-17T03:32:24.605Z,2.20
2023-03-17T03:34:52.173Z,2.38
2023-03-17T03:37:19.463Z,2.20
2023-03-17T03:39:47.867Z,3.10
2023-03-17T03:42:16.473Z,3.05
2023-03-17T03:44:43.943Z,2.50
2023-03-17T03:47:11.578Z,2.90
2023-03-17T03:49:39.149Z,2.50
2023-03-17T03:52:06.885Z,2.97
2023-03-17T03:54:34.302Z,2.38
2023-03-17T03:57:01.657Z,2.83
2023-03-17T03:59:30.642Z,2.58
2023-03-17T04:01:58.007Z,2.47
2023-03-17T04:04:25.488Z,2.20
2023-03-17T04:06:52.959Z,2.58
2023-03-17T04:09:20.438Z,2.58
2023-03-17T04:11:47.866Z,2.28
2023-03-17T04:14:15.459Z,2.67
2023-03-17T04:16:43.596Z,2.25
2023-03-17T04:19:11.399Z,2.58
2023-03-17T04:21:38.855Z,2.08
2023-03-17T04:24:06.666Z,2.38
2023-03-17T04:26:33.967Z,2.65
2023-03-17T04:29:01.511Z,2.30
2023-03-17T04:31:28.820Z,2.42
2023-03-17T04:33:56.357Z,2.55
2023-03-17T04:36:24.526Z,2.40
2023-03-17T04:38:52.221Z,2.33
2023-03-17T04:41:19.617Z,2.22
2023-03-17T04:43:47.325Z,2.35
2023-03-17T04:46:14.814Z,2.22
2023-03-17T04:48:42.319Z,2.58
2023-03-17T04:51:11.638Z,2.60
2023-03-17T04:53:40.173Z,2.78
2023-03-17T04:56:07.651Z,2.55
2023-03-17T04:58:35.076Z,2.15
2023-03-17T05:01:03.804Z,2.50
2023-03-17T05:03:31.903Z,2.47
2023-03-17T05:06:00.969Z,2.63
2023-03-17T05:08:28.602Z,2.33
2023-03-17T05:10:57.452Z,2.03
2023-03-17T05:13:26.558Z,2.55
2023-03-17T05:15:55.918Z,2.20
2023-03-17T05:18:25.805Z,2.30
2023-03-17T05:20:53.801Z,2.30
2023-03-17T05:23:22.481Z,2.33
2023-03-17T05:25:50.280Z,2.63
2023-03-17T05:28:18.538Z,2.65
2023-03-17T05:30:46.133Z,2.63
2023-03-17T05:33:14.908Z,2.60
2023-03-17T05:35:42.778Z,2.40
2023-03-17T05:38:12.606Z,2.13
2023-03-17T05:40:40.088Z,2.63
2023-03-17T05:43:07.536Z,3.80
2023-03-17T05:45:35.206Z,2.35
2023-03-17T05:48:03.426Z,2.40
2023-03-17T05:50:31.091Z,2.25
2023-03-17T05:52:58.528Z,2.33
2023-03-17T05:55:26.328Z,2.67
2023-03-17T05:57:53.847Z,2.53
2023-03-17T06:00:21.759Z,2.70
2023-03-17T06:02:49.374Z,2.97
2023-03-17T06:05:17.620Z,2.55
2023-03-17T06:07:53.966Z,2.55
2023-03-17T06:10:24.319Z,2.15
2023-03-17T06:12:52.195Z,2.75
2023-03-17T06:15:20.830Z,2.60
2023-03-17T06:17:48.199Z,3.60
2023-03-17T06:20:15.940Z,2.40
2023-03-17T06:23:00.300Z,3.08
2023-03-17T06:25:31.461Z,2.22
2023-03-17T06:28:02.835Z,2.88
2023-03-17T06:30:33.140Z,2.25
2023-03-17T06:33:02.145Z,2.58
2023-03-17T06:35:31.408Z,2.42
2023-03-17T06:37:59.229Z,2.65
2023-03-17T06:40:27.012Z,2.50
2023-03-17T06:42:54.381Z,2.70
2023-03-17T06:45:21.812Z,2.25
2023-03-17T06:47:49.227Z,2.50
2023-03-17T06:50:16.761Z,3.05
2023-03-17T06:52:46.654Z,2.50
2023-03-17T06:55:15.441Z,2.47
2023-03-17T06:57:42.729Z,2.50
2023-03-17T07:00:12.782Z,2.67
2023-03-17T07:02:40.460Z,3.00
2023-03-17T07:05:08.402Z,2.88
2023-03-17T07:07:35.988Z,2.78
2023-03-17T07:10:03.724Z,2.53
2023-03-17T07:12:30.999Z,2.85
2023-03-17T07:14:59.682Z,2.70
2023-03-17T07:17:27.298Z,2.47
2023-03-17T07:19:54.714Z,2.75
2023-03-17T07:22:22.566Z,2.63
2023-03-17T07:24:49.910Z,2.30
2023-03-17T07:27:17.236Z,2.65
2023-03-17T07:29:44.808Z,3.10
2023-03-17T07:32:12.118Z,3.00
2023-03-17T07:34:39.538Z,2.80
2023-03-17T07:37:07.202Z,2.63
2023-03-17T07:39:34.984Z,2.72
2023-03-17T07:42:02.788Z,2.40
2023-03-17T07:44:30.753Z,2.85
2023-03-17T07:46:58.116Z,2.50
2023-03-17T07:49:40.354Z,2.50
2023-03-17T07:52:09.706Z,2.45
2023-03-17T07:54:38.069Z,2.60
2023-03-17T07:57:06.817Z,2.75
2023-03-17T07:59:34.739Z,2.90
2023-03-17T08:02:02.635Z,2.58
2023-03-17T08:04:30.417Z,2.42
2023-03-17T08:06:58.025Z,2.90
2023-03-17T08:09:26.606Z,2.72
2023-03-17T08:11:54.026Z,2.53
2023-03-17T08:14:21.540Z,2.53
2023-03-17T08:16:49.124Z,2.58
2023-03-17T08:19:16.628Z,2.67
2023-03-17T08:21:44.175Z,2.45
2023-03-17T08:24:12.044Z,2.63
2023-03-17T08:26:39.467Z,2.83
2023-03-17T08:29:08.482Z,2.50
2023-03-17T08:31:36.607Z,2.75
2023-03-17T08:34:05.053Z,2.35
2023-03-17T08:36:33.144Z,2.53
2023-03-17T08:39:00.427Z,2.65
2023-03-17T08:41:28.610Z,2.75
2023-03-17T08:43:57.342Z,2.55
2023-03-17T08:46:28.504Z,2.78
2023-03-17T08:48:58.184Z,2.70
2023-03-17T08:51:29.479Z,2.70
2023-03-17T08:53:57.843Z,2.33
2023-03-17T08:56:25.721Z,2.53
2023-03-17T08:58:53.583Z,2.50
2023-03-17T09:01:22.831Z,2.47
2023-03-17T09:03:53.529Z,2.70
2023-03-17T09:06:22.678Z,2.45
2023-03-17T09:08:55.793Z,2.60
2023-03-17T09:11:26.791Z,2.53
2023-03-17T09:13:55.509Z,2.80
2023-03-17T09:16:24.239Z,2.30
2023-03-17T09:18:52.603Z,2.58
2023-03-17T09:21:21.507Z,2.20
2023-03-17T09:23:49.090Z,2.60
2023-03-17T09:26:16.648Z,3.13
2023-03-17T09:28:44.792Z,2.30
2023-03-17T09:31:13.245Z,2.38
2023-03-17T09:33:42.628Z,2.83
2023-03-17T09:36:11.245Z,2.45
2023-03-17T09:38:39.265Z,2.88
2023-03-17T09:41:20.158Z,2.30
2023-03-17T09:43:51.127Z,2.72
2023-03-17T09:46:31.872Z,2.65
2023-03-17T09:49:05.287Z,2.47
2023-03-17T09:51:34.040Z,3.08
2023-03-17T09:54:07.985Z,2.75
2023-03-17T09:56:40.523Z,2.92
2023-03-17T09:59:30.255Z,2.38
2023-03-17T10:01:57.931Z,2.65
2023-03-17T10:04:25.387Z,3.05
2023-03-17T10:06:57.935Z,2.78
2023-03-17T10:09:33.405Z,2.75
2023-03-17T10:12:07.700Z,2.67
2023-03-17T10:14:44.096Z,2.72
2023-03-17T10:17:16.516Z,2.92
2023-03-17T10:19:50.994Z,2.55
2023-03-17T10:22:29.414Z,2.78
2023-03-17T10:25:04.000Z,2.95
2023-03-17T10:27:36.352Z,2.78
2023-03-17T10:30:05.854Z,2.80
2023-03-17T10:32:38.027Z,2.63
2023-03-17T10:35:07.345Z,2.75
2023-03-17T10:37:36.983Z,2.72
2023-03-17T10:40:10.551Z,2.95
2023-03-17T10:42:59.604Z,2.42
2023-03-17T10:45:31.597Z,2.50
2023-03-17T10:48:02.936Z,2.80
2023-03-17T10:50:33.683Z,2.60
2023-03-17T10:53:08.849Z,2.40
2023-03-17T10:55:42.972Z,2.38
2023-03-17T10:58:31.026Z,2.80
2023-03-17T11:01:03.981Z,2.63
2023-03-17T11:03:34.215Z,2.45
2023-03-17T11:06:06.327Z,2.58
2023-03-17T11:08:37.036Z,2.78
2023-03-17T11:11:08.727Z,2.38
2023-03-17T11:13:36.771Z,2.75
2023-03-17T11:16:17.946Z,2.50
2023-03-17T11:18:48.658Z,2.28
2023-03-17T11:21:23.599Z,2.40
2023-03-17T11:23:58.724Z,2.78
2023-03-17T11:26:39.026Z,2.97
2023-03-17T11:29:21.517Z,2.70
2023-03-17T11:31:59.509Z,3.10
2023-03-17T11:34:48.089Z,2.63
2023-03-17T11:37:24.038Z,2.78
2023-03-17T11:39:57.608Z,2.97
2023-03-17T11:42:29.678Z,3.08
2023-03-17T11:45:05.578Z,2.75
2023-03-17T11:47:36.472Z,2.70
2023-03-17T11:50:20.203Z,2.75
2023-03-17T11:52:54.708Z,2.80
2023-03-17T11:55:29.208Z,2.80
2023-03-17T11:58:01.767Z,2.90
2023-03-17T12:00:34.879Z,3.25
2023-03-17T12:03:18.075Z,3.15
2023-03-17T12:05:51.624Z,3.08
2023-03-17T12:10:55.781Z,3.22
2023-03-17T12:13:28.155Z,3.13
2023-03-17T12:16:11.432Z,2.63
2023-03-17T12:18:47.133Z,2.92
2023-03-17T12:21:31.172Z,2.67
2023-03-17T12:24:03.974Z,2.63
2023-03-17T12:26:37.431Z,2.97
2023-03-17T12:29:15.951Z,2.80
2023-03-17T12:31:50.925Z,2.75
2023-03-17T12:34:22.666Z,2.95
2023-03-17T12:36:50.529Z,3.10
2023-03-17T12:39:22.394Z,3.00
2023-03-17T12:42:05.650Z,2.38
2023-03-17T12:44:36.522Z,3.30
2023-03-17T12:47:21.743Z,2.50
2023-03-17T12:49:56.267Z,3.42
2023-03-17T12:52:26.708Z,2.90
2023-03-17T12:54:54.822Z,2.42
2023-03-17T12:57:25.202Z,2.70
2023-03-17T13:00:04.686Z,3.00
2023-03-17T13:02:38.056Z,3.28
2023-03-17T13:05:09.293Z,3.50
2023-03-17T13:07:48.167Z,2.83
2023-03-17T13:10:20.009Z,2.67
2023-03-17T13:13:03.344Z,3.35
2023-03-17T13:15:52.344Z,2.85
2023-03-17T13:18:48.262Z,2.60
2023-03-17T13:21:19.129Z,2.65
2023-03-17T13:23:57.094Z,3.08
2023-03-17T13:26:46.967Z,3.10
2023-03-17T13:29:17.843Z,3.13
2023-03-17T13:31:45.270Z,3.05
2023-03-17T13:34:15.781Z,3.20
2023-03-17T13:36:55.933Z,3.10
2023-03-17T13:39:31.224Z,3.50
2023-03-17T13:42:20.053Z,3.13
2023-03-17T13:44:51.001Z,2.90
2023-03-17T13:47:22.829Z,3.30
2023-03-17T13:49:53.022Z,3.40
2023-03-17T13:52:31.148Z,2.90
2023-03-17T13:55:06.106Z,3.60
2023-03-17T13:57:37.592Z,3.00
2023-03-17T14:00:25.987Z,3.08
2023-03-17T14:03:09.661Z,3.05
2023-03-17T14:05:38.555Z,3.45
2023-03-17T14:08:10.377Z,3.83
2023-03-17T14:10:37.822Z,4.53
2023-03-17T14:13:08.185Z,4.20
2023-03-17T14:15:42.325Z,3.80
2023-03-17T14:18:17.636Z,3.45
2023-03-17T14:20:48.505Z,3.80
2023-03-17T14:23:18.036Z,3.63
2023-03-17T14:25:45.529Z,3.72
2023-03-17T14:28:17.268Z,3.70
2023-03-17T14:30:47.745Z,2.97
2023-03-17T14:33:26.328Z,3.50
2023-03-17T14:35:58.177Z,4.00
2023-03-17T14:38:29.572Z,3.42
2023-03-17T14:41:04.591Z,3.88
2023-03-17T14:43:33.995Z,3.85
2023-03-17T14:46:04.267Z,3.25
2023-03-17T14:48:34.870Z,3.20
2023-03-17T14:51:08.088Z,3.15
2023-03-17T14:53:40.763Z,2.90
2023-03-17T14:56:08.317Z,2.78
2023-03-17T14:58:41.772Z,3.30
2023-03-17T15:01:17.730Z,2.88
2023-03-17T15:03:48.447Z,3.13
2023-03-17T15:06:18.826Z,3.60
2023-03-17T15:08:46.728Z,3.08
2023-03-17T15:11:18.958Z,3.25
2023-03-17T15:13:46.875Z,2.80
2023-03-17T15:16:18.864Z,3.13
2023-03-17T15:18:46.997Z,2.90
2023-03-17T15:21:17.236Z,3.17
2023-03-17T15:23:44.935Z,3.15
2023-03-17T15:26:24.165Z,3.13
2023-03-17T15:28:51.925Z,2.80
2023-03-17T15:31:23.581Z,3.05
2023-03-17T15:33:52.506Z,2.92
2023-03-17T15:36:31.930Z,2.85
2023-03-17T15:39:01.304Z,2.92
2023-03-17T15:41:28.596Z,2.72
2023-03-17T15:43:56.916Z,3.33
2023-03-17T15:46:27.830Z,2.88
2023-03-17T15:48:55.310Z,2.83
2023-03-17T15:51:22.897Z,2.85
2023-03-17T15:53:50.383Z,2.80
2023-03-17T15:56:20.446Z,2.80
2023-03-17T15:58:49.554Z,2.83
2023-03-17T16:01:17.479Z,3.38
2023-03-17T16:03:47.137Z,3.20
2023-03-17T16:06:18.040Z,2.70
2023-03-17T16:08:46.027Z,2.38
2023-03-17T16:11:17.835Z,3.10
2023-03-17T16:13:46.589Z,2.70
2023-03-17T16:16:21.346Z,2.33
2023-03-17T16:18:51.717Z,2.55
2023-03-17T16:21:19.844Z,3.40
2023-03-17T16:23:49.072Z,2.72
2023-03-17T16:26:17.286Z,2.72
2023-03-17T16:28:47.820Z,2.50
2023-03-17T16:31:19.518Z,3.33
2023-03-17T16:33:48.407Z,2.85
2023-03-17T16:36:18.368Z,2.83
2023-03-17T16:38:46.835Z,3.35
2023-03-17T16:41:19.351Z,2.22
2023-03-17T16:43:51.301Z,3.20
2023-03-17T16:46:20.371Z,2.47
2023-03-17T16:48:48.570Z,2.65
2023-03-17T16:51:16.331Z,2.70
2023-03-17T16:53:44.063Z,3.15
2023-03-17T16:56:17.333Z,3.05
2023-03-17T16:58:45.723Z,2.58
2023-03-17T17:01:17.655Z,2.70
2023-03-17T17:03:45.888Z,2.75
2023-03-17T17:06:14.575Z,3.40
2023-03-17T17:08:43.926Z,2.88
2023-03-17T17:11:13.133Z,3.17
2023-03-17T17:13:42.246Z,3.17
2023-03-17T17:16:20.539Z,2.92
2023-03-17T17:18:47.930Z,3.00
2023-03-17T17:21:15.048Z,2.80
2023-03-17T17:23:42.630Z,2.90
2023-03-17T17:26:09.995Z,2.53
2023-03-17T17:28:39.981Z,2.90
2023-03-17T17:31:08.761Z,2.40
2023-03-17T17:33:37.056Z,2.50
2023-03-17T17:36:06.915Z,2.55
2023-03-17T17:38:34.188Z,2.63
2023-03-17T17:41:03.486Z,2.60
2023-03-17T17:43:30.825Z,2.42
2023-03-17T17:45:58.447Z,2.60
2023-03-17T17:48:27.125Z,2.38
2023-03-17T17:50:56.468Z,2.95
2023-03-17T17:53:24.652Z,2.20
2023-03-17T17:55:52.388Z,2.28
2023-03-17T17:58:22.913Z,2.17
2023-03-17T18:00:50.928Z,1.90
2023-03-17T18:03:22.437Z,2.33
2023-03-17T18:05:49.684Z,2.63
2023-03-17T18:08:16.996Z,1.98
2023-03-17T18:10:44.453Z,2.28
2023-03-17T18:13:11.624Z,2.50
2023-03-17T18:15:38.992Z,2.50
2023-03-17T18:18:07.073Z,2.72
2023-03-17T18:20:34.802Z,3.08
2023-03-17T18:23:02.105Z,3.10
2023-03-17T18:25:29.944Z,3.20
2023-03-17T18:27:57.550Z,3.28
2023-03-17T18:30:28.346Z,3.08
2023-03-17T18:33:00.740Z,2.63
2023-03-17T18:35:29.295Z,2.70
2023-03-17T18:37:57.806Z,2.50
2023-03-17T18:40:25.782Z,2.30
2023-03-17T18:42:53.293Z,2.42
2023-03-17T18:45:20.603Z,2.35
2023-03-17T18:47:48.019Z,2.10
2023-03-17T18:50:16.593Z,2.30
2023-03-17T18:52:43.968Z,2.38
2023-03-17T18:55:13.292Z,2.60
2023-03-17T18:57:43.168Z,2.35
2023-03-17T19:00:13.117Z,2.10
2023-03-17T19:02:40.533Z,2.00
2023-03-17T19:05:08.972Z,2.30
2023-03-17T19:07:39.008Z,1.90
2023-03-17T19:10:08.550Z,2.22
2023-03-17T19:12:36.413Z,2.85
2023-03-17T19:15:04.402Z,2.60
2023-03-17T19:17:31.745Z,3.08
2023-03-17T19:19:59.030Z,2.80
2023-03-17T19:22:26.223Z,2.67
2023-03-17T19:24:53.633Z,2.60
2023-03-17T19:27:20.800Z,2.85
2023-03-17T19:29:48.036Z,2.80
2023-03-17T19:32:16.351Z,2.83
2023-03-17T19:34:44.094Z,2.67
2023-03-17T19:37:11.299Z,2.80
2023-03-17T19:39:38.590Z,3.10
2023-03-17T19:42:05.867Z,3.00
2023-03-17T19:44:33.909Z,2.60
2023-03-17T19:47:05.105Z,2.72
2023-03-17T19:49:34.392Z,2.53
2023-03-17T19:52:02.188Z,2.50
2023-03-17T19:54:29.560Z,2.53
2023-03-17T19:56:57.562Z,2.67
2023-03-17T19:59:24.984Z,2.63
2023-03-17T20:01:52.539Z,2.83
2023-03-17T20:04:22.408Z,2.50
2023-03-17T20:06:55.616Z,2.22
2023-03-17T20:09:26.236Z,2.28
2023-03-17T20:11:54.456Z,2.63
2023-03-17T20:14:21.722Z,3.28
2023-03-17T20:16:49.603Z,4.00
2023-03-17T20:19:17.533Z,3.92
2023-03-17T20:21:44.865Z,4.35
2023-03-17T20:24:14.737Z,3.97
2023-03-17T20:26:43.540Z,4.45
2023-03-17T20:29:12.860Z,4.30
2023-03-17T20:31:40.395Z,4.45
2023-03-17T20:34:08.302Z,3.97
2023-03-17T20:36:35.692Z,4.13
2023-03-17T20:39:04.675Z,3.33
2023-03-17T20:41:32.317Z,3.10
2023-03-17T20:43:59.571Z,3.58
2023-03-17T20:46:26.964Z,3.30
2023-03-17T20:48:59.088Z,4.53
2023-03-17T20:51:27.292Z,4.13
2023-03-17T20:53:55.249Z,3.42
2023-03-17T20:56:24.153Z,3.65
2023-03-17T20:58:53.274Z,3.50
2023-03-17T21:01:21.805Z,3.28
2023-03-17T21:03:50.171Z,4.05
2023-03-17T21:06:18.455Z,3.85
2023-03-17T21:08:46.391Z,3.35
2023-03-17T21:11:18.228Z,3.88
2023-03-17T21:13:45.934Z,3.83
2023-03-17T21:16:18.957Z,4.05
2023-03-17T21:18:46.663Z,4.60
2023-03-17T21:21:14.215Z,4.43
2023-03-17T21:23:42.103Z,4.32
2023-03-17T21:26:09.743Z,3.97
2023-03-17T21:28:41.376Z,4.40
2023-03-17T21:31:09.708Z,5.22
2023-03-17T21:33:37.584Z,4.35
2023-03-17T21:36:05.798Z,3.63
2023-03-17T21:38:33.058Z,4.13
2023-03-17T21:41:21.645Z,4.03
2023-03-17T21:43:49.113Z,4.18
2023-03-17T21:46:16.286Z,3.63
2023-03-17T21:48:44.220Z,3.80
2023-03-17T21:51:11.518Z,4.03
2023-03-17T21:53:39.101Z,3.88
2023-03-17T21:56:06.693Z,5.05
2023-03-17T21:58:35.102Z,4.95
2023-03-17T22:01:03.320Z,5.30
2023-03-17T22:03:32.535Z,4.13
2023-03-17T22:05:59.798Z,4.50
2023-03-17T22:08:27.165Z,4.70
2023-03-17T22:10:54.384Z,4.18
2023-03-17T22:13:21.602Z,5.15
2023-03-17T22:15:48.744Z,4.18
2023-03-17T22:18:16.125Z,4.55
2023-03-17T22:20:45.059Z,3.70
2023-03-17T22:23:13.270Z,3.95
2023-03-17T22:25:40.508Z,4.50
2023-03-17T22:28:08.632Z,4.07
2023-03-17T22:30:39.568Z,4.40
2023-03-17T22:33:07.832Z,4.30
2023-03-17T22:35:35.961Z,3.78
2023-03-17T22:38:03.679Z,4.30
2023-03-17T22:40:31.571Z,4.30
2023-03-17T22:42:59.330Z,4.70
2023-03-17T22:45:26.730Z,4.53
2023-03-17T22:47:56.225Z,4.95
2023-03-17T22:50:26.001Z,4.57
2023-03-17T22:52:53.179Z,5.15
2023-03-17T22:55:20.592Z,4.60
2023-03-17T22:57:47.960Z,3.33
2023-03-17T23:00:17.165Z,4.07
2023-03-17T23:02:46.596Z,5.20
2023-03-17T23:05:14.664Z,5.55
2023-03-17T23:07:51.600Z,4.22
2023-03-17T23:10:23.314Z,4.57
2023-03-17T23:12:51.555Z,3.78
2023-03-17T23:15:21.249Z,4.10
2023-03-17T23:17:48.862Z,3.90
2023-03-17T23:20:16.863Z,3.78
2023-03-17T23:22:44.154Z,3.88
2023-03-17T23:25:13.682Z,4.10
2023-03-17T23:27:41.460Z,3.83
2023-03-17T23:30:11.782Z,4.10
2023-03-17T23:32:40.925Z,3.70
2023-03-17T23:35:09.443Z,3.55
2023-03-17T23:37:37.464Z,3.72
2023-03-17T23:40:06.544Z,3.70
2023-03-17T23:42:34.101Z,4.07
2023-03-17T23:45:02.256Z,4.07
2023-03-17T23:47:29.634Z,4.25
2023-03-17T23:49:57.235Z,3.70
2023-03-17T23:52:24.556Z,3.78
2023-03-17T23:54:52.420Z,3.60
2023-03-17T23:57:19.811Z,4.43
2023-03-17T23:59:47.099Z,4.07
